1945 Tropical Low NOT_NAMED (1945362S15123)


IBTrACS version v04r00. Visit IBTrACS website for data access.
Please direct all questions to the IBTrACS Q and A forum

Storm track - Intensity - Wind Radii - Intensity Data - Source Data - All data

Summary Information

Storm ID 1945362S15123
Start Dec 27 23Z
Max Intensity 980 mb (Dec 30 01Z)
End Jan 2 01Z
ATCF IDs ,SH041946
Track status Best track data.

Storm track plot

Map of storm track

Intensity plots

Map of storm track

Radial wind information

No radial wind information for this storm


Position and Intensity Table

BASIN ISO_TIME_________ NATURE LAT LON WMO PRES BOM PRES
degrees north degrees east mb mb
SI 1945-12-27 23:00:00 NR -15.20 123.40
SI 1945-12-28 00:00:00 TS -15.29 123.30
SI 01:00:00 TS -15.29 123.43 1000 1000
SI 03:00:00 TS -15.43 123.28
SI 06:00:00 TS -15.64 123.01
SI 09:00:00 TS -15.81 122.76
SI 11:00:00 TS -15.94 122.56
SI 12:00:00 TS -16.00 122.46
SI 15:00:00 TS -16.18 122.15
SI 18:00:00 TS -16.33 121.86
SI 21:00:00 TS -16.46 121.56
SI 23:00:00 TS -16.55 121.36
SI 1945-12-29 00:00:00 TS -16.57 121.27
SI 01:00:00 TS -16.60 121.18 995 995
SI 03:00:00 TS -16.69 120.97
SI 06:00:00 TS -16.84 120.64
SI 09:00:00 TS -16.98 120.29
SI 11:00:00 TS -17.07 120.04
SI 12:00:00 TS -17.12 119.91
SI 15:00:00 TS -17.27 119.51
SI 18:00:00 TS -17.44 119.08
SI 21:00:00 TS -17.62 118.67
SI 23:00:00 TS -17.76 118.40
SI 1945-12-30 00:00:00 TS -17.85 118.26
SI 01:00:00 TS -17.95 118.12 980 980
SI 03:00:00 TS -18.14 117.84 980
SI 06:00:00 TS -18.46 117.43 980
SI 09:00:00 TS -18.80 117.05 980
SI 09:30:00 TS -18.86 116.99 980 980
SI 11:00:00 TS -19.06 116.81
SI 12:00:00 TS -19.20 116.69
SI 15:00:00 TS -19.68 116.34
SI 18:00:00 TS -20.18 116.00
SI 21:00:00 TS -20.63 115.66
SI 23:00:00 TS -20.88 115.41
SI 1945-12-31 00:00:00 TS -20.99 115.27
SI 01:00:00 TS -21.08 115.11 980 980
SI 03:00:00 TS -21.23 114.77 981
SI 06:00:00 TS -21.43 114.23 982
SI 09:00:00 TS -21.65 113.68 983
SI 11:00:00 TS -21.81 113.34 985 985
SI 12:00:00 TS -21.90 113.17
SI 15:00:00 TS -22.18 112.69
SI 18:00:00 TS -22.47 112.25
SI 21:00:00 TS -22.75 111.85
SI 23:00:00 TS -22.93 111.61
SI 1946-01-01 00:00:00 TS -23.02 111.51
SI 01:00:00 TS -23.10 111.41 990 990
SI 03:00:00 TS -23.25 111.24
SI 06:00:00 TS -23.46 111.02
SI 09:00:00 TS -23.67 110.78
SI 11:00:00 TS -23.81 110.62
SI 12:00:00 TS -23.90 110.53
SI 15:00:00 TS -24.15 110.28
SI 18:00:00 TS -24.42 110.03
SI 21:00:00 NR -24.70 109.78
SI 23:00:00 NR -24.86 109.63
SI 1946-01-02 00:00:00 TS -24.93 109.57
SI 01:00:00 NR -25.00 109.50 1000 1000

Source Information

Agency Information
USA bsh041946.txt
TOKYO
CMA
HKO
NEWDELHI
REUNION
BOM IDCKMSTM0S.csv:Line=1269:unnamed
NADI
WELLINGTON
DS824 s_hem.dat:430:04S
TD9636 cons_worldwide_trop_cyclone_18710101-19891231-006:Line=2873
TD9635
NEUMANN
MLC

All available IBTrACS Data

SEASON BASIN SUBBASIN ISO_TIME_________ NATURE LAT LON WMO PRES WMO AGENCY DIST2LAND LANDFALL IFLAG USA AGENCY USA ATCF_ID USA LAT USA LON USA SSHS BOM LAT BOM LON BOM PRES BOM PRES_METHOD DS824 LAT DS824 LON DS824 STAGE TD9636 LAT TD9636 LON TD9636 STAGE STORM SPEED STORM DIR
Year degrees north degrees east mb km km degrees north degrees east 1 degrees north degrees east mb degrees north degrees east degrees north degrees east kts degrees
1946 SI WA 1945-12-27 23:00:00 NR -15.20 123.40 116 109 __________O___ -1 -15.20 123.40 7 8 226
1946 SI WA 1945-12-28 00:00:00 TS -15.29 123.30 109 105 O________OP___ jtwc_sh SH041946 -15.30 123.30 -1 -15.30 123.30 TC -15.28 123.30 7 3 0
1946 SI WA 01:00:00 TS -15.29 123.43 1000 bom 105 95 P_____O__PP___ SH041946 -15.39 123.20 -1 -14.70 125.00 1000 -15.39 123.20 TC -15.36 123.21 7 3 190
1946 SI WA 03:00:00 TS -15.43 123.28 99 92 P_____P__PP___ SH041946 -15.56 122.99 -1 -14.84 124.67 -15.56 122.99 TC -15.52 123.02 7 6 230
1946 SI WA 06:00:00 TS -15.64 123.01 100 79 O_____P__OP___ jtwc_sh SH041946 -15.80 122.70 -1 -15.04 124.18 -15.80 122.70 TC -15.75 122.74 7 6 232
1946 SI WA 09:00:00 TS -15.81 122.76 79 70 P_____P__PP___ SH041946 -16.01 122.44 -1 -15.24 123.69 -16.01 122.44 TC -15.97 122.47 7 6 235
1946 SI WA 11:00:00 TS -15.94 122.56 74 70 P_____P__PO___ SH041946 -16.14 122.28 -1 -15.38 123.37 -16.14 122.28 TC -16.10 122.30 7 7 237
1946 SI WA 12:00:00 TS -16.00 122.46 70 69 O_____P__OP___ jtwc_sh SH041946 -16.20 122.20 -1 -15.44 123.21 -16.20 122.20 TC -16.16 122.22 7 7 239
1946 SI WA 15:00:00 TS -16.18 122.15 77 77 P_____P__PP___ SH041946 -16.36 121.95 -1 -15.64 122.74 -16.36 121.95 TC -16.33 121.97 7 7 240
1946 SI WA 18:00:00 TS -16.33 121.86 92 92 O_____P__OP___ jtwc_sh SH041946 -16.50 121.70 -1 -15.84 122.29 -16.50 121.70 TC -16.48 121.73 7 6 243
1946 SI WA 21:00:00 TS -16.46 121.56 100 100 P_____P__PP___ SH041946 -16.60 121.46 -1 -16.04 121.85 -16.60 121.46 TC -16.61 121.48 7 6 245
1946 SI WA 23:00:00 TS -16.55 121.36 117 117 P_____P__PO___ SH041946 -16.66 121.29 -1 -16.17 121.57 -16.66 121.29 TC -16.70 121.30 7 6 249
1946 SI WA 1945-12-29 00:00:00 TS -16.57 121.27 120 120 O_____P__OP___ jtwc_sh SH041946 -16.70 121.20 -1 -16.24 121.43 -16.70 121.20 TC -16.74 121.21 7 5 253
1946 SI WA 01:00:00 TS -16.60 121.18 995 bom 129 129 P_____O__PP___ SH041946 -16.75 121.11 -1 -16.30 121.30 995 -16.75 121.11 TC -16.79 121.11 7 6 247
1946 SI WA 03:00:00 TS -16.69 120.97 144 144 P_____P__PP___ SH041946 -16.85 120.92 -1 -16.43 121.04 -16.85 120.92 TC -16.87 120.91 7 7 246
1946 SI WA 06:00:00 TS -16.84 120.64 179 175 O_____P__OP___ jtwc_sh SH041946 -17.00 120.60 -1 -16.62 120.67 -17.00 120.60 TC -16.99 120.59 7 7 246
1946 SI WA 09:00:00 TS -16.98 120.29 202 202 P_____P__PP___ SH041946 -17.10 120.27 -1 -16.81 120.30 -17.10 120.27 TC -17.11 120.25 7 7 248
1946 SI WA 11:00:00 TS -17.07 120.04 229 229 P_____P__PO___ SH041946 -17.16 120.03 -1 -16.94 120.07 -17.16 120.03 TC -17.20 120.00 7 8 249
1946 SI WA 12:00:00 TS -17.12 119.91 240 240 O_____P__OP___ jtwc_sh SH041946 -17.20 119.90 -1 -17.00 119.95 -17.20 119.90 TC -17.24 119.87 7 8 249
1946 SI WA 15:00:00 TS -17.27 119.51 274 274 P_____P__PP___ SH041946 -17.34 119.46 -1 -17.19 119.59 -17.34 119.46 TC -17.34 119.45 7 9 248
1946 SI WA 18:00:00 TS -17.44 119.08 300 281 O_____P__OP___ jtwc_sh SH041946 -17.50 119.00 -1 -17.37 119.23 -17.50 119.00 TC -17.47 119.02 7 9 246
1946 SI WA 21:00:00 TS -17.62 118.67 282 273 P_____P__PP___ SH041946 -17.67 118.59 -1 -17.56 118.84 -17.67 118.59 TC -17.65 118.58 7 9 243
1946 SI WA 23:00:00 TS -17.76 118.40 267 267 P_____P__PO___ SH041946 -17.81 118.33 -1 -17.68 118.58 -17.81 118.33 TC -17.80 118.30 7 9 240
1946 SI WA 1945-12-30 00:00:00 TS -17.85 118.26 270 263 O_____P__OP___ jtwc_sh SH041946 -17.90 118.20 -1 -17.74 118.44 -17.90 118.20 TC -17.89 118.17 7 10 236
1946 SI WA 01:00:00 TS -17.95 118.12 980 bom 267 251 P_____O__PP___ SH041946 -18.00 118.06 -1 -17.80 118.30 980 -18.00 118.06 TC -17.99 118.04 7 10 234
1946 SI WA 03:00:00 TS -18.14 117.84 259 232 P_____P__PP___ SH041946 -18.22 117.79 -1 -17.90 117.99 980 -18.22 117.79 TC -18.21 117.78 7 10 232
1946 SI WA 06:00:00 TS -18.46 117.43 224 203 O_____P__OP___ jtwc_sh SH041946 -18.60 117.40 -1 -18.06 117.53 980 -18.60 117.40 TC -18.58 117.40 7 10 228
1946 SI WA 09:00:00 TS -18.80 117.05 202 202 P_____P__PP___ SH041946 -18.97 117.04 -1 -18.26 117.07 980 -18.97 117.04 TC -19.00 117.04 7 10 227
1946 SI WA 09:30:00 TS -18.86 116.99 980 bom 191 178 P_____O__PP___ SH041946 -19.04 116.98 -1 -18.30 117.00 980 -19.04 116.98 TC -19.08 116.98 7 10 222
1946 SI WA 11:00:00 TS -19.06 116.81 167 156 P_____P__PO___ SH041946 -19.25 116.81 -1 -18.43 116.80 -19.25 116.81 TC -19.30 116.80 7 11 220
1946 SI WA 12:00:00 TS -19.20 116.69 156 105 O_____P__OP___ jtwc_sh SH041946 -19.40 116.70 -1 -18.53 116.67 -19.40 116.70 TC -19.46 116.69 7 12 215
1946 SI WA 15:00:00 TS -19.68 116.34 108 81 P_____P__PP___ SH041946 -19.95 116.35 -1 -18.87 116.31 -19.95 116.35 TC -19.97 116.36 7 12 213
1946 SI WA 18:00:00 TS -20.18 116.00 81 59 O_____P__OP___ jtwc_sh SH041946 -20.50 116.00 -1 -19.24 115.97 -20.50 116.00 TC -20.48 116.03 7 11 214
1946 SI WA 21:00:00 TS -20.63 115.66 59 53 P_____P__PP___ SH041946 -20.96 115.68 -1 -19.65 115.62 -20.96 115.68 TC -20.94 115.67 7 11 218
1946 SI WA 23:00:00 TS -20.88 115.41 53 53 P_____P__PO___ SH041946 -21.20 115.44 -1 -19.93 115.37 -21.20 115.44 TC -21.20 115.40 7 10 225
1946 SI WA 1945-12-31 00:00:00 TS -20.99 115.27 53 53 O_____P__OP___ jtwc_sh SH041946 -21.30 115.30 -1 -20.06 115.24 -21.30 115.30 TC -21.30 115.24 7 10 234
1946 SI WA 01:00:00 TS -21.08 115.11 980 bom 56 54 P_____O__PP___ SH041946 -21.38 115.14 -1 -20.20 115.10 980 4 -21.38 115.14 TC -21.38 115.08 7 11 242
1946 SI WA 03:00:00 TS -21.23 114.77 56 49 P_____P__PP___ SH041946 -21.48 114.78 -1 -20.46 114.80 981 -21.48 114.78 TC -21.51 114.73 7 11 247
1946 SI WA 06:00:00 TS -21.43 114.23 56 35 O_____P__OP___ jtwc_sh SH041946 -21.60 114.20 -1 -20.85 114.32 982 -21.60 114.20 TC -21.66 114.19 7 11 247
1946 SI WA 09:00:00 TS -21.65 113.68 38 38 P_____P__PP___ SH041946 -21.78 113.63 -1 -21.24 113.82 983 -21.78 113.63 TC -21.80 113.64 7 11 245
1946 SI WA 11:00:00 TS -21.81 113.34 985 bom 70 65 P_____O__PO___ SH041946 -21.92 113.27 -1 -21.50 113.50 985 -21.92 113.27 TC -21.90 113.30 7 11 243
1946 SI WA 12:00:00 TS -21.90 113.17 75 75 O_____P__OP___ jtwc_sh SH041946 -22.00 113.10 -1 -21.63 113.34 -22.00 113.10 TC -21.98 113.14 7 11 239
1946 SI WA 15:00:00 TS -22.18 112.69 102 102 P_____P__PP___ SH041946 -22.24 112.62 -1 -22.02 112.86 -22.24 112.62 TC -22.22 112.66 7 10 236
1946 SI WA 18:00:00 TS -22.47 112.25 133 133 O_____P__OP___ jtwc_sh SH041946 -22.50 112.20 -1 -22.40 112.39 -22.50 112.20 TC -22.48 112.22 7 10 234
1946 SI WA 21:00:00 TS -22.75 111.85 185 185 P_____P__PP___ SH041946 -22.76 111.81 -1 -22.76 111.94 -22.76 111.81 TC -22.74 111.83 7 9 232
1946 SI WA 23:00:00 TS -22.93 111.61 207 207 P_____P__PO___ SH041946 -22.92 111.59 -1 -22.98 111.66 -22.92 111.59 TC -22.90 111.60 7 8 230
1946 SI WA 1946-01-01 00:00:00 TS -23.02 111.51 219 219 O_____P__OP___ jtwc_sh SH041946 -23.00 111.50 -1 -23.09 111.53 -23.00 111.50 TC -22.97 111.50 7 7 229
1946 SI WA 01:00:00 TS -23.10 111.41 990 bom 231 231 P_____O__PP___ SH041946 -23.07 111.42 -1 -23.20 111.40 990 -23.07 111.42 TC -23.04 111.41 7 7 227
1946 SI WA 03:00:00 TS -23.25 111.24 247 243 P_____P__PP___ SH041946 -23.21 111.28 -1 -23.40 111.16 -23.21 111.28 TC -23.17 111.24 7 6 225
1946 SI WA 06:00:00 TS -23.46 111.02 258 258 O_____P__OP___ jtwc_sh SH041946 -23.40 111.10 -1 -23.68 110.84 -23.40 111.10 TC -23.36 111.03 7 6 225
1946 SI WA 09:00:00 TS -23.67 110.78 275 275 P_____P__PP___ SH041946 -23.59 110.86 -1 -23.93 110.56 -23.59 110.86 TC -23.55 110.83 7 6 226
1946 SI WA 11:00:00 TS -23.81 110.62 291 289 P_____P__PO___ SH041946 -23.73 110.69 -1 -24.08 110.40 -23.73 110.69 TC -23.70 110.70 7 6 225
1946 SI WA 12:00:00 TS -23.90 110.53 299 297 O_____P__OP___ jtwc_sh SH041946 -23.80 110.60 -1 -24.16 110.32 -23.80 110.60 TC -23.78 110.63 7 7 222
1946 SI WA 15:00:00 TS -24.15 110.28 315 314 P_____P__PP___ SH041946 -24.04 110.35 -1 -24.37 110.10 -24.04 110.35 TC -24.03 110.40 7 7 221
1946 SI WA 18:00:00 TS -24.42 110.03 344 344 O_____P__OP___ jtwc_sh SH041946 -24.30 110.10 -1 -24.57 109.91 -24.30 110.10 TC -24.31 110.15 7 7 219
1946 SI WA 21:00:00 NR -24.70 109.78 365 365 ______P___P___ SH041946 -1 -24.76 109.73 TC -24.60 109.88 7 7 219
1946 SI WA 23:00:00 NR -24.86 109.63 387 387 ______P___O___ SH041946 -1 -24.88 109.61 TC -24.80 109.70 7 6 220
1946 SI WA 1946-01-02 00:00:00 TS -24.93 109.57 387 387 ______P_______ -1 -24.94 109.56 7 6 222
1946 SI WA 01:00:00 NR -25.00 109.50 1000 bom 399 ______O_______ -1 -25.00 109.50 1000 7 6 221